Brownsville, California
Current Conditions -  °F | °C
As of 2:53 PM on Thursday 27 Nov 2014 (Local Time) from KOVE Reporting Station
Clear Clear  
Wind Chill: 62°   Ceiling: Unl
Heat Index: 62°   Visibility: 10mi
Dew Point: 49°   Wind: 0mph
Humidity: 62%   Direction: NA
Pressure: 30.11"   Gusts: NA
Location:  39.47°N, 121.27°W
Report Text: KOVE 272253Z AUTO 00000KT 10SM CLR 17/09 A3011 RMK AO2 SLP196 T01670094
Loading
Personal Weather Stations






























Interactive Weather Map New forecast layout! Learn more

10-Day Weather Forecast

Advertisements
Track Severe Weather on mobile